Caletta — ICNZ — position and weather

sailwx.info

Track history (hours):
 
Tides and Currents Weather Stations Pressure Air Temp Water Temp Dewpoint Dewpoint Depression Visibility Wind Speed Wind Dir Waves Ship Positions

Caletta

Last reported at 2015-Aug-05 09:25 UTC. Time now 2015-Aug-05 10:25 UTC.
Position N 40°50' E 014°18'.

Length 183 m; draft 10 m.

Type: Ship (hazmat cat A). MMSI: 247296300.

Date/timePositionNaut miles runAvg speedWind from/ knotsBaromVisibWave heightAir tempDewpointWater temp
2015-Aug-05 09:25N 40°50' E 014°18'0 0.0
2015-Aug-05 07:19N 40°50' E 014°18'0 0.0
2015-Aug-05 06:19N 40°50' E 014°18'0 0.0
2015-Aug-05 04:28N 40°50' E 014°18'0 0.0
2015-Aug-05 03:28N 40°50' E 014°18'0 0.0
2015-Aug-05 02:16N 40°50' E 014°18'0 0.0
2015-Aug-05 01:22N 40°50' E 014°18'0 0.0
2015-Aug-05 00:28N 40°50' E 014°18'0 0.0
2015-Aug-04 23:22N 40°50' E 014°18'0 0.0
2015-Aug-04 21:28N 40°50' E 014°18'0 0.0
2015-Aug-04 20:25N 40°50' E 014°18'0 0.0
2015-Aug-04 17:25N 40°50' E 014°18'0 0.0
2015-Aug-04 16:13N 40°50' E 014°18'0 0.0
2015-Aug-04 15:25N 40°50' E 014°18'0 0.0
2015-Aug-04 14:10N 40°50' E 014°18'0 0.0
2015-Aug-04 13:31N 40°50' E 014°18'0 0.0
2015-Aug-04 11:25N 40°50' E 014°18'0 0.0
2015-Aug-04 10:25N 40°50' E 014°18'0 0.0
2015-Aug-04 09:25N 40°50' E 014°18'0 0.0
2015-Aug-04 08:19N 40°50' E 014°18'0 0.0
2015-Aug-04 07:13N 40°50' E 014°18'0 0.0
2015-Aug-04 06:25N 40°50' E 014°18'0 0.0
2015-Aug-04 03:19N 40°50' E 014°18'0 0.0
2015-Aug-04 02:31N 40°50' E 014°18'0 0.0
2015-Aug-04 01:31N 40°50' E 014°18'0 0.0
2015-Aug-04 00:31N 40°50' E 014°18'0 0.0
2015-Aug-03 23:31N 40°50' E 014°18'0 0.0
2015-Aug-03 22:25N 40°50' E 014°18'0 0.0
2015-Aug-03 20:22N 40°50' E 014°18'0 0.0
2015-Aug-03 19:22N 40°50' E 014°18'0 0.0
2015-Aug-03 18:07N 40°50' E 014°18'0 0.0
2015-Aug-03 17:31N 40°50' E 014°18'0 0.0
2015-Aug-03 13:31N 40°50' E 014°18'0 0.5
2015-Aug-03 12:33N 40°50' E 014°18'2 1.1
2015-Aug-03 11:08N 40°49' E 014°19'0 0.1
2015-Aug-03 10:29N 40°49' E 014°19'0 0.0
2015-Aug-03 09:14N 40°49' E 014°19'0 0.0
2015-Aug-03 08:32N 40°49' E 014°19'0 0.0
2015-Aug-03 02:23N 40°49' E 014°19'0 0.2
2015-Aug-03 01:33N 40°48' E 014°19'5 4.9
2015-Aug-03 00:33N 40°44' E 014°16'1212.3
2015-Aug-02 23:33N 40°34' E 014°07'1211.9
2015-Aug-02 22:33N 40°22' E 014°10'5213.0
2015-Aug-02 18:32N 39°38' E 014°45'1312.9
2015-Aug-02 17:33N 39°27' E 014°54'4012.9
2015-Aug-02 14:29N 38°53' E 015°20'1213.0
2015-Aug-02 13:31N 38°42' E 015°28'1413.0
2015-Aug-02 12:28N 38°30' E 015°37'1212.9
2015-Aug-02 11:33N 38°20' E 015°43'1111.2
2015-Aug-02 10:34N 38°10' E 015°36'1313.2
2015-Aug-02 09:33N 37°56' E 015°35'1211.7
2015-Aug-02 08:33N 37°49' E 015°46'1413.5
2015-Aug-02 07:33N 37°45' E 016°02'2813.8
2015-Aug-02 05:34N 37°38' E 016°36'1413.6
2015-Aug-02 04:33N 37°34' E 016°53'1413.6
2015-Aug-02 03:33N 37°31' E 017°09'1313.5
2015-Aug-02 02:33N 37°27' E 017°26'1313.4
2015-Aug-02 01:33N 37°24' E 017°42'1813.1
2015-Aug-02 00:11N 37°19' E 018°04'913.0
2015-Aug-01 23:28N 37°16' E 018°15'1412.9
2015-Aug-01 22:24N 37°13' E 018°32'1312.7
2015-Aug-01 21:24N 37°09' E 018°47'3713.1
2015-Aug-01 18:33N 36°59' E 019°32'19711.4
2015-Aug-01 01:17N 37°07' E 023°38'1013.5
2015-Aug-01 00:33N 37°16' E 023°42'1313.1
2015-Jul-31 23:33N 37°29' E 023°43'1313.5
2015-Jul-31 22:33N 37°42' E 023°41'1211.9
2015-Jul-31 21:33N 37°50' E 023°30'1413.8
2015-Jul-31 20:33N 37°53' E 023°12'6 0.2
2015-Jul-30 08:20N 37°55' E 023°05'1 0.8
2015-Jul-30 07:15N 37°54' E 023°04'0 0.0
2015-Jul-30 06:33N 37°54' E 023°04'0 0.0
2015-Jul-30 02:33N 37°54' E 023°04'0 0.0
2015-Jul-29 17:33N 37°54' E 023°04'0 0.0
2015-Jul-29 16:30N 37°54' E 023°04'0 0.0
2015-Jul-29 15:24N 37°54' E 023°04'0 0.0
2015-Jul-29 14:30N 37°54' E 023°04'0 0.0
2015-Jul-29 08:06N 37°54' E 023°04'0 0.0
2015-Jul-29 03:12N 37°54' E 023°04'0 0.0
2015-Jul-29 02:12N 37°54' E 023°04'0 0.0
2015-Jul-29 01:18N 37°54' E 023°04'0 0.0
2015-Jul-29 00:30N 37°54' E 023°04'0 0.0
2015-Jul-28 21:30N 37°54' E 023°04'0 0.0
2015-Jul-28 18:27N 37°54' E 023°04'0 0.1
2015-Jul-28 16:33N 37°54' E 023°04'0 0.0
2015-Jul-28 15:27N 37°54' E 023°04'0 0.0
2015-Jul-28 13:33N 37°54' E 023°04'0 0.1
2015-Jul-28 10:33N 37°54' E 023°04'0 0.0
2015-Jul-28 08:27N 37°54' E 023°04'0 0.0
2015-Jul-28 03:06N 37°54' E 023°04'0 0.0
2015-Jul-28 01:18N 37°54' E 023°04'0 0.0
2015-Jul-28 00:33N 37°54' E 023°04'0 0.0
2015-Jul-27 23:33N 37°54' E 023°04'0 0.0
2015-Jul-27 22:33N 37°54' E 023°04'0 0.0
2015-Jul-27 19:33N 37°54' E 023°04'0 0.0
2015-Jul-27 18:15N 37°54' E 023°04'0 0.0
2015-Jul-27 17:24N 37°54' E 023°04'0 0.1
2015-Jul-27 16:18N 37°54' E 023°04'0 0.0
2015-Jul-27 15:30N 37°54' E 023°04'0 0.0
2015-Jul-27 14:33N 37°54' E 023°04'0 0.1
2015-Jul-27 13:12N 37°54' E 023°04'0 0.0
2015-Jul-27 01:30N 37°54' E 023°04'0 0.0
2015-Jul-27 00:18N 37°54' E 023°04'0 0.0
2015-Jul-26 19:24N 37°54' E 023°04'1 1.5
2015-Jul-26 18:34N 37°54' E 023°05'1212.3
2015-Jul-26 17:34N 37°51' E 023°21'1413.7
2015-Jul-26 16:33N 37°51' E 023°38'1313.5
2015-Jul-26 15:33N 37°39' E 023°45'1414.3
2015-Jul-26 14:33N 37°24' E 023°44'1514.7
2015-Jul-26 13:33N 37°11' E 023°38'1413.8
2015-Jul-26 12:33N 36°58' E 023°32'1414.0
2015-Jul-26 11:33N 36°45' E 023°26'1413.5
2015-Jul-26 10:33N 36°32' E 023°19'  
Track history (hours):
 
Tides and Currents Weather Stations Pressure Air Temp Water Temp Dewpoint Dewpoint Depression Visibility Wind Speed Wind Dir Waves Ship Positions

Caletta

Last reported at 2015-Aug-05 09:25 UTC. Time now 2015-Aug-05 10:25 UTC.
Position N 40°50' E 014°18'.

Length 183 m; draft 10 m.

Type: Ship (hazmat cat A). MMSI: 247296300.

Date/timePositionNaut miles runAvg speedWind from/ knotsBaromVisibWave heightAir tempDewpointWater temp
2015-Aug-05 09:25N 40°50' E 014°18'0 0.0
2015-Aug-05 07:19N 40°50' E 014°18'0 0.0
2015-Aug-05 06:19N 40°50' E 014°18'0 0.0
2015-Aug-05 04:28N 40°50' E 014°18'0 0.0
2015-Aug-05 03:28N 40°50' E 014°18'0 0.0
2015-Aug-05 02:16N 40°50' E 014°18'0 0.0
2015-Aug-05 01:22N 40°50' E 014°18'0 0.0
2015-Aug-05 00:28N 40°50' E 014°18'0 0.0
2015-Aug-04 23:22N 40°50' E 014°18'0 0.0
2015-Aug-04 21:28N 40°50' E 014°18'0 0.0
2015-Aug-04 20:25N 40°50' E 014°18'0 0.0
2015-Aug-04 17:25N 40°50' E 014°18'0 0.0
2015-Aug-04 16:13N 40°50' E 014°18'0 0.0
2015-Aug-04 15:25N 40°50' E 014°18'0 0.0
2015-Aug-04 14:10N 40°50' E 014°18'0 0.0
2015-Aug-04 13:31N 40°50' E 014°18'0 0.0
2015-Aug-04 11:25N 40°50' E 014°18'0 0.0
2015-Aug-04 10:25N 40°50' E 014°18'0 0.0
2015-Aug-04 09:25N 40°50' E 014°18'0 0.0
2015-Aug-04 08:19N 40°50' E 014°18'0 0.0
2015-Aug-04 07:13N 40°50' E 014°18'0 0.0
2015-Aug-04 06:25N 40°50' E 014°18'0 0.0
2015-Aug-04 03:19N 40°50' E 014°18'0 0.0
2015-Aug-04 02:31N 40°50' E 014°18'0 0.0
2015-Aug-04 01:31N 40°50' E 014°18'0 0.0
2015-Aug-04 00:31N 40°50' E 014°18'0 0.0
2015-Aug-03 23:31N 40°50' E 014°18'0 0.0
2015-Aug-03 22:25N 40°50' E 014°18'0 0.0
2015-Aug-03 20:22N 40°50' E 014°18'0 0.0
2015-Aug-03 19:22N 40°50' E 014°18'0 0.0
2015-Aug-03 18:07N 40°50' E 014°18'0 0.0
2015-Aug-03 17:31N 40°50' E 014°18'0 0.0
2015-Aug-03 13:31N 40°50' E 014°18'0 0.5
2015-Aug-03 12:33N 40°50' E 014°18'2 1.1
2015-Aug-03 11:08N 40°49' E 014°19'0 0.1
2015-Aug-03 10:29N 40°49' E 014°19'0 0.0
2015-Aug-03 09:14N 40°49' E 014°19'0 0.0
2015-Aug-03 08:32N 40°49' E 014°19'0 0.0
2015-Aug-03 02:23N 40°49' E 014°19'0 0.2
2015-Aug-03 01:33N 40°48' E 014°19'5 4.9
2015-Aug-03 00:33N 40°44' E 014°16'1212.3
2015-Aug-02 23:33N 40°34' E 014°07'1211.9
2015-Aug-02 22:33N 40°22' E 014°10'5213.0
2015-Aug-02 18:32N 39°38' E 014°45'1312.9
2015-Aug-02 17:33N 39°27' E 014°54'4012.9
2015-Aug-02 14:29N 38°53' E 015°20'1213.0
2015-Aug-02 13:31N 38°42' E 015°28'1413.0
2015-Aug-02 12:28N 38°30' E 015°37'1212.9
2015-Aug-02 11:33N 38°20' E 015°43'1111.2
2015-Aug-02 10:34N 38°10' E 015°36'1313.2
2015-Aug-02 09:33N 37°56' E 015°35'1211.7
2015-Aug-02 08:33N 37°49' E 015°46'1413.5
2015-Aug-02 07:33N 37°45' E 016°02'2813.8
2015-Aug-02 05:34N 37°38' E 016°36'1413.6
2015-Aug-02 04:33N 37°34' E 016°53'1413.6
2015-Aug-02 03:33N 37°31' E 017°09'1313.5
2015-Aug-02 02:33N 37°27' E 017°26'1313.4
2015-Aug-02 01:33N 37°24' E 017°42'1813.1
2015-Aug-02 00:11N 37°19' E 018°04'913.0
2015-Aug-01 23:28N 37°16' E 018°15'1412.9
2015-Aug-01 22:24N 37°13' E 018°32'1312.7
2015-Aug-01 21:24N 37°09' E 018°47'3713.1
2015-Aug-01 18:33N 36°59' E 019°32'19711.4
2015-Aug-01 01:17N 37°07' E 023°38'1013.5
2015-Aug-01 00:33N 37°16' E 023°42'1313.1
2015-Jul-31 23:33N 37°29' E 023°43'1313.5
2015-Jul-31 22:33N 37°42' E 023°41'1211.9
2015-Jul-31 21:33N 37°50' E 023°30'1413.8
2015-Jul-31 20:33N 37°53' E 023°12'6 0.2
2015-Jul-30 08:20N 37°55' E 023°05'1 0.8
2015-Jul-30 07:15N 37°54' E 023°04'0 0.0
2015-Jul-30 06:33N 37°54' E 023°04'0 0.0
2015-Jul-30 02:33N 37°54' E 023°04'0 0.0
2015-Jul-29 17:33N 37°54' E 023°04'0 0.0
2015-Jul-29 16:30N 37°54' E 023°04'0 0.0
2015-Jul-29 15:24N 37°54' E 023°04'0 0.0
2015-Jul-29 14:30N 37°54' E 023°04'0 0.0
2015-Jul-29 08:06N 37°54' E 023°04'0 0.0
2015-Jul-29 03:12N 37°54' E 023°04'0 0.0
2015-Jul-29 02:12N 37°54' E 023°04'0 0.0
2015-Jul-29 01:18N 37°54' E 023°04'0 0.0
2015-Jul-29 00:30N 37°54' E 023°04'0 0.0
2015-Jul-28 21:30N 37°54' E 023°04'0 0.0
2015-Jul-28 18:27N 37°54' E 023°04'0 0.1
2015-Jul-28 16:33N 37°54' E 023°04'0 0.0
2015-Jul-28 15:27N 37°54' E 023°04'0 0.0
2015-Jul-28 13:33N 37°54' E 023°04'0 0.1
2015-Jul-28 10:33N 37°54' E 023°04'0 0.0
2015-Jul-28 08:27N 37°54' E 023°04'0 0.0
2015-Jul-28 03:06N 37°54' E 023°04'0 0.0
2015-Jul-28 01:18N 37°54' E 023°04'0 0.0
2015-Jul-28 00:33N 37°54' E 023°04'0 0.0
2015-Jul-27 23:33N 37°54' E 023°04'0 0.0
2015-Jul-27 22:33N 37°54' E 023°04'0 0.0
2015-Jul-27 19:33N 37°54' E 023°04'0 0.0
2015-Jul-27 18:15N 37°54' E 023°04'0 0.0
2015-Jul-27 17:24N 37°54' E 023°04'0 0.1
2015-Jul-27 16:18N 37°54' E 023°04'0 0.0
2015-Jul-27 15:30N 37°54' E 023°04'0 0.0
2015-Jul-27 14:33N 37°54' E 023°04'0 0.1
2015-Jul-27 13:12N 37°54' E 023°04'0 0.0
2015-Jul-27 01:30N 37°54' E 023°04'0 0.0
2015-Jul-27 00:18N 37°54' E 023°04'0 0.0
2015-Jul-26 19:24N 37°54' E 023°04'1 1.5
2015-Jul-26 18:34N 37°54' E 023°05'1212.3
2015-Jul-26 17:34N 37°51' E 023°21'1413.7
2015-Jul-26 16:33N 37°51' E 023°38'1313.5
2015-Jul-26 15:33N 37°39' E 023°45'1414.3
2015-Jul-26 14:33N 37°24' E 023°44'1514.7
2015-Jul-26 13:33N 37°11' E 023°38'1413.8
2015-Jul-26 12:33N 36°58' E 023°32'1414.0
2015-Jul-26 11:33N 36°45' E 023°26'1413.5
2015-Jul-26 10:33N 36°32' E 023°19'  

Dump ship's entire track history